createdAt,value
2022-09-26T00:01:12.195Z,41.88
2022-09-26T00:03:39.627Z,46.13
2022-09-26T00:06:08.572Z,41.00
2022-09-26T00:08:37.308Z,41.05
2022-09-26T00:11:07.548Z,41.60
2022-09-26T00:13:36.799Z,39.13
2022-09-26T00:16:04.398Z,39.50
2022-09-26T00:18:31.178Z,35.70
2022-09-26T00:21:09.043Z,34.60
2022-09-26T00:23:36.101Z,39.58
2022-09-26T00:26:03.963Z,33.53
2022-09-26T00:28:30.918Z,33.40
2022-09-26T00:30:57.668Z,33.50
2022-09-26T00:33:24.397Z,34.50
2022-09-26T00:35:52.218Z,36.95
2022-09-26T00:38:19.309Z,32.00
2022-09-26T00:40:47.238Z,34.10
2022-09-26T00:43:33.538Z,34.97
2022-09-26T00:46:40.799Z,33.58
2022-09-26T00:49:21.741Z,39.00
2022-09-26T00:51:58.791Z,33.45
2022-09-26T00:54:28.298Z,34.10
2022-09-26T00:56:58.576Z,34.13
2022-09-26T00:59:39.115Z,32.30
2022-09-26T01:02:06.029Z,34.13
2022-09-26T01:04:38.146Z,35.90
2022-09-26T01:07:10.609Z,32.47
2022-09-26T01:09:39.327Z,35.33
2022-09-26T01:12:08.565Z,34.00
2022-09-26T01:14:37.664Z,34.22
2022-09-26T01:17:05.305Z,36.00
2022-09-26T01:20:08.055Z,33.33
2022-09-26T01:22:43.704Z,32.83
2022-09-26T01:25:38.635Z,30.00
2022-09-26T01:28:31.460Z,29.17
2022-09-26T01:31:40.207Z,33.00
2022-09-26T01:34:32.019Z,33.20
2022-09-26T01:37:23.603Z,32.47
2022-09-26T01:40:02.687Z,31.48
2022-09-26T01:43:00.067Z,30.55
2022-09-26T01:45:36.076Z,29.58
2022-09-26T01:48:17.136Z,30.95
2022-09-26T01:50:50.271Z,30.08
2022-09-26T01:53:42.793Z,31.73
2022-09-26T01:56:15.303Z,32.83
2022-09-26T01:58:47.693Z,30.77
2022-09-26T02:01:15.658Z,32.00
2022-09-26T02:03:58.851Z,31.75
2022-09-26T02:07:04.517Z,31.63
2022-09-26T02:09:37.789Z,32.30
2022-09-26T02:12:08.937Z,32.53
2022-09-26T02:14:41.860Z,34.30
2022-09-26T02:17:13.057Z,32.50
2022-09-26T02:19:59.046Z,32.75
2022-09-26T02:22:34.361Z,35.42
2022-09-26T02:25:02.799Z,33.25
2022-09-26T02:27:29.607Z,29.63
2022-09-26T02:29:57.610Z,32.03
2022-09-26T02:32:29.247Z,30.67
2022-09-26T02:34:56.850Z,29.63
2022-09-26T02:37:25.479Z,29.13
2022-09-26T02:39:53.472Z,29.15
2022-09-26T02:42:24.619Z,28.55
2022-09-26T02:44:57.046Z,27.05
2022-09-26T02:47:44.868Z,25.65
2022-09-26T02:50:25.510Z,26.05
2022-09-26T02:53:29.828Z,24.38
2022-09-26T02:56:06.307Z,22.58
2022-09-26T02:58:51.180Z,22.60
2022-09-26T03:01:31.466Z,23.58
2022-09-26T03:04:14.904Z,27.58
2022-09-26T03:06:45.326Z,24.63
2022-09-26T03:09:13.193Z,21.05
2022-09-26T03:11:41.965Z,22.17
2022-09-26T03:14:09.992Z,22.42
2022-09-26T03:16:42.299Z,22.02
2022-09-26T03:21:38.551Z,25.38
2022-09-26T03:24:05.304Z,22.20
2022-09-26T03:26:33.229Z,23.02
2022-09-26T03:29:00.084Z,20.35
2022-09-26T03:31:27.282Z,20.02
2022-09-26T03:33:54.047Z,19.88
2022-09-26T03:36:24.250Z,27.25
2022-09-26T03:38:50.851Z,19.00
2022-09-26T03:41:17.402Z,21.15
2022-09-26T03:43:44.055Z,22.17
2022-09-26T03:46:12.312Z,19.88
2022-09-26T03:48:39.479Z,21.55
2022-09-26T03:51:09.297Z,17.17
2022-09-26T03:53:38.417Z,16.98
2022-09-26T03:56:07.446Z,18.70
2022-09-26T03:58:34.561Z,18.80
2022-09-26T04:01:05.799Z,19.20
2022-09-26T04:03:34.102Z,23.15
2022-09-26T04:06:00.881Z,16.40
2022-09-26T04:08:27.956Z,16.05
2022-09-26T04:11:01.306Z,16.23
2022-09-26T04:13:50.009Z,19.80
2022-09-26T04:16:14.442Z,21.48
2022-09-26T04:18:41.119Z,16.88
2022-09-26T04:21:10.281Z,17.58
2022-09-26T04:23:39.798Z,15.65
2022-09-26T04:26:13.298Z,17.00
2022-09-26T04:28:40.934Z,16.88
2022-09-26T04:31:10.579Z,15.40
2022-09-26T04:33:39.251Z,18.30
2022-09-26T04:36:09.243Z,18.73
2022-09-26T04:38:36.132Z,18.42
2022-09-26T04:41:08.263Z,19.33
2022-09-26T04:43:35.343Z,18.88
2022-09-26T04:46:06.139Z,19.52
2022-09-26T04:48:32.821Z,19.42
2022-09-26T04:50:59.455Z,19.55
2022-09-26T04:53:26.524Z,17.23
2022-09-26T04:55:54.368Z,17.23
2022-09-26T04:58:21.598Z,19.00
2022-09-26T05:00:49.705Z,21.38
2022-09-26T05:03:17.414Z,18.17
2022-09-26T05:05:47.267Z,22.33
2022-09-26T05:08:17.280Z,17.17
2022-09-26T05:10:44.333Z,22.52
2022-09-26T05:13:11.008Z,21.85
2022-09-26T05:15:39.998Z,16.85
2022-09-26T05:18:08.463Z,16.75
2022-09-26T05:20:35.923Z,18.23
2022-09-26T05:23:03.710Z,17.48
2022-09-26T05:25:55.514Z,16.98
2022-09-26T05:28:22.347Z,20.40
2022-09-26T05:30:50.365Z,14.93
2022-09-26T05:33:19.909Z,23.08
2022-09-26T05:35:56.328Z,18.90
2022-09-26T05:38:22.961Z,20.05
2022-09-26T05:40:56.499Z,14.02
2022-09-26T05:43:29.013Z,19.95
2022-09-26T05:48:32.449Z,13.70
2022-09-26T05:51:13.669Z,16.27
2022-09-26T05:53:41.760Z,16.40
2022-09-26T05:56:09.521Z,14.43
2022-09-26T05:58:38.298Z,20.30
2022-09-26T06:01:16.836Z,13.48
2022-09-26T06:03:45.083Z,12.95
2022-09-26T06:06:14.174Z,13.32
2022-09-26T06:08:41.438Z,14.10
2022-09-26T06:11:16.596Z,11.98
2022-09-26T06:13:45.815Z,15.15
2022-09-26T06:16:16.719Z,14.13
2022-09-26T06:18:43.280Z,12.80
2022-09-26T06:21:11.642Z,11.95
2022-09-26T06:23:38.479Z,15.98
2022-09-26T06:26:08.401Z,14.80
2022-09-26T06:28:39.013Z,15.15
2022-09-26T06:31:15.198Z,15.10
2022-09-26T06:33:41.810Z,16.73
2022-09-26T06:36:11.071Z,16.60
2022-09-26T06:38:38.415Z,17.48
2022-09-26T06:41:07.413Z,15.52
2022-09-26T06:43:34.250Z,15.88
2022-09-26T06:46:01.065Z,13.60
2022-09-26T06:48:27.762Z,14.77
2022-09-26T06:50:57.113Z,16.23
2022-09-26T06:53:24.017Z,16.88
2022-09-26T06:55:50.691Z,21.45
2022-09-26T06:58:17.788Z,20.45
2022-09-26T07:00:44.727Z,20.70
2022-09-26T07:03:13.524Z,19.30
2022-09-26T07:05:40.085Z,14.13
2022-09-26T07:08:07.064Z,18.52
2022-09-26T07:10:37.653Z,18.38
2022-09-26T07:13:09.498Z,12.77
2022-09-26T07:15:37.141Z,18.33
2022-09-26T07:18:06.537Z,18.48
2022-09-26T07:20:36.598Z,19.60
2022-09-26T07:23:05.403Z,17.70
2022-09-26T07:25:33.434Z,15.23
2022-09-26T07:28:00.980Z,16.67
2022-09-26T07:30:28.392Z,21.20
2022-09-26T07:33:03.148Z,16.63
2022-09-26T07:35:31.282Z,14.40
2022-09-26T07:37:59.480Z,16.40
2022-09-26T07:40:27.393Z,17.60
2022-09-26T07:43:15.693Z,20.55
2022-09-26T07:46:03.864Z,15.35
2022-09-26T07:48:48.907Z,15.80
2022-09-26T07:51:16.270Z,13.98
2022-09-26T07:53:42.869Z,14.63
2022-09-26T07:56:12.810Z,12.52
2022-09-26T07:58:45.658Z,14.93
2022-09-26T08:01:14.640Z,13.43
2022-09-26T08:03:43.226Z,15.70
2022-09-26T08:06:12.377Z,16.70
2022-09-26T08:08:41.476Z,12.18
2022-09-26T08:11:16.393Z,11.95
2022-09-26T08:13:43.724Z,25.80
2022-09-26T08:16:11.740Z,33.55
2022-09-26T08:18:39.867Z,16.15
2022-09-26T08:21:07.120Z,11.13
2022-09-26T08:23:34.258Z,15.05
2022-09-26T08:26:06.862Z,16.17
2022-09-26T08:28:35.564Z,12.63
2022-09-26T08:31:05.051Z,12.23
2022-09-26T08:33:37.192Z,11.50
2022-09-26T08:36:16.041Z,12.27
2022-09-26T08:38:42.873Z,14.27
2022-09-26T08:41:32.865Z,15.60
2022-09-26T08:44:24.134Z,12.23
2022-09-26T08:47:17.923Z,16.77
2022-09-26T08:50:22.149Z,14.68
2022-09-26T08:53:05.734Z,12.93
2022-09-26T08:55:41.861Z,12.95
2022-09-26T08:58:17.374Z,13.70
2022-09-26T09:00:44.729Z,13.90
2022-09-26T09:03:31.099Z,12.90
2022-09-26T09:06:05.810Z,14.02
2022-09-26T09:08:44.370Z,12.57
2022-09-26T09:11:42.105Z,12.15
2022-09-26T09:14:14.928Z,17.02
2022-09-26T09:16:51.545Z,8.18
2022-09-26T09:20:00.991Z,10.30
2022-09-26T09:23:01.313Z,10.25
2022-09-26T09:25:35.483Z,10.23
2022-09-26T09:28:39.911Z,9.02
2022-09-26T09:31:12.414Z,10.98
2022-09-26T09:33:44.154Z,9.77
2022-09-26T09:36:17.441Z,11.88
2022-09-26T09:38:46.984Z,10.68
2022-09-26T09:41:19.271Z,11.93
2022-09-26T09:46:25.147Z,8.68
2022-09-26T09:49:00.281Z,9.43
2022-09-26T09:51:42.066Z,10.77
2022-09-26T09:54:27.413Z,9.68
2022-09-26T09:57:36.645Z,7.70
2022-09-26T10:00:16.275Z,8.75
2022-09-26T10:02:56.605Z,8.65
2022-09-26T10:05:25.394Z,8.63
2022-09-26T10:07:58.460Z,8.43
2022-09-26T10:10:39.757Z,7.68
2022-09-26T10:13:11.140Z,9.27
2022-09-26T10:16:05.660Z,7.68
2022-09-26T10:18:33.748Z,8.30
2022-09-26T10:21:16.227Z,9.02
2022-09-26T10:23:46.931Z,10.23
2022-09-26T10:26:13.989Z,7.85
2022-09-26T10:28:58.017Z,11.07
2022-09-26T10:31:31.475Z,7.63
2022-09-26T10:34:06.215Z,8.25
2022-09-26T10:36:36.850Z,9.38
2022-09-26T10:39:40.032Z,8.30
2022-09-26T10:42:15.906Z,8.50
2022-09-26T10:44:43.176Z,6.78
2022-09-26T10:47:16.838Z,7.13
2022-09-26T10:49:59.083Z,9.88
2022-09-26T10:52:40.089Z,7.47
2022-09-26T10:55:13.135Z,9.30
2022-09-26T10:57:45.695Z,9.02
2022-09-26T11:00:36.778Z,7.85
2022-09-26T11:03:05.928Z,6.90
2022-09-26T11:05:56.631Z,7.18
2022-09-26T11:08:35.007Z,7.63
2022-09-26T11:11:04.823Z,8.00
2022-09-26T11:14:08.421Z,7.32
2022-09-26T11:16:50.971Z,8.35
2022-09-26T11:19:29.850Z,7.00
2022-09-26T11:22:20.093Z,8.00
2022-09-26T11:24:54.888Z,8.35
2022-09-26T11:27:34.514Z,9.65
2022-09-26T11:30:09.316Z,9.57
2022-09-26T11:32:41.018Z,7.45
2022-09-26T11:35:29.609Z,7.90
2022-09-26T11:38:08.426Z,7.55
2022-09-26T11:40:47.223Z,8.00
2022-09-26T11:43:35.875Z,11.43
2022-09-26T11:46:34.668Z,8.05
2022-09-26T11:49:38.394Z,8.55
2022-09-26T11:52:13.089Z,8.38
2022-09-26T11:54:58.517Z,7.38
2022-09-26T11:57:34.849Z,11.10
2022-09-26T12:00:07.361Z,9.05
2022-09-26T12:02:47.399Z,7.03
2022-09-26T12:05:38.097Z,7.13
2022-09-26T12:08:07.662Z,7.68
2022-09-26T12:10:47.016Z,6.20
2022-09-26T12:13:22.622Z,7.70
2022-09-26T12:16:02.559Z,8.05
2022-09-26T12:18:43.580Z,7.22
2022-09-26T12:21:31.960Z,7.32
2022-09-26T12:24:27.353Z,8.65
2022-09-26T12:27:03.068Z,7.63
2022-09-26T12:29:53.832Z,7.63
2022-09-26T12:32:38.783Z,8.98
2022-09-26T12:35:29.182Z,7.38
2022-09-26T12:38:17.702Z,7.38
2022-09-26T12:41:14.415Z,6.78
2022-09-26T12:44:03.227Z,9.43
2022-09-26T12:46:51.910Z,13.02
2022-09-26T12:49:27.823Z,8.02
2022-09-26T12:52:16.307Z,8.52
2022-09-26T12:54:54.888Z,8.63
2022-09-26T12:57:36.036Z,8.63
2022-09-26T13:00:11.734Z,8.45
2022-09-26T13:02:51.187Z,10.20
2022-09-26T13:05:30.617Z,9.63
2022-09-26T13:08:46.143Z,6.90
2022-09-26T13:11:34.141Z,8.43
2022-09-26T13:14:06.190Z,7.13
2022-09-26T13:16:41.040Z,8.25
2022-09-26T13:19:21.860Z,7.90
2022-09-26T13:21:54.761Z,7.13
2022-09-26T13:24:34.621Z,7.72
2022-09-26T13:27:13.936Z,7.57
2022-09-26T13:29:46.272Z,7.03
2022-09-26T13:32:26.824Z,6.30
2022-09-26T13:35:00.888Z,5.43
2022-09-26T13:37:42.602Z,6.13
2022-09-26T13:40:37.985Z,6.75
2022-09-26T13:43:33.527Z,6.43
2022-09-26T13:46:27.171Z,9.48
2022-09-26T13:49:18.830Z,7.03
2022-09-26T13:51:58.282Z,6.43
2022-09-26T13:54:46.955Z,12.20
2022-09-26T13:57:35.191Z,6.85
2022-09-26T14:00:30.258Z,6.65
2022-09-26T14:03:19.563Z,7.00
2022-09-26T14:05:49.966Z,7.88
2022-09-26T14:08:44.653Z,6.63
2022-09-26T14:11:24.568Z,9.18
2022-09-26T14:14:19.422Z,8.02
2022-09-26T14:16:57.546Z,7.95
2022-09-26T14:19:33.172Z,10.15
2022-09-26T14:22:05.435Z,10.70
2022-09-26T14:24:41.820Z,6.95
2022-09-26T14:27:11.584Z,7.65
2022-09-26T14:29:38.216Z,9.98
2022-09-26T14:32:08.772Z,12.55
2022-09-26T14:34:35.434Z,8.10
2022-09-26T14:37:05.475Z,13.13
2022-09-26T14:39:38.959Z,13.48
2022-09-26T14:42:18.867Z,8.10
2022-09-26T14:44:57.803Z,7.22
2022-09-26T14:47:27.962Z,5.88
2022-09-26T14:50:13.971Z,9.45
2022-09-26T14:52:51.348Z,9.23
2022-09-26T14:55:19.304Z,8.80
2022-09-26T14:57:51.697Z,7.60
2022-09-26T15:00:43.084Z,8.30
2022-09-26T15:03:16.555Z,8.15
2022-09-26T15:05:44.757Z,8.05
2022-09-26T15:08:25.527Z,10.80
2022-09-26T15:10:56.010Z,9.88
2022-09-26T15:13:25.363Z,9.75
2022-09-26T15:16:09.963Z,10.40
2022-09-26T15:18:57.310Z,9.52
2022-09-26T15:21:41.023Z,9.50
2022-09-26T15:24:37.907Z,12.15
2022-09-26T15:27:20.426Z,10.30
2022-09-26T15:29:54.774Z,10.02
2022-09-26T15:32:32.457Z,8.75
2022-09-26T15:35:01.857Z,10.07
2022-09-26T15:37:34.941Z,7.25
2022-09-26T15:40:13.660Z,6.60
2022-09-26T15:42:58.405Z,10.05
2022-09-26T15:45:33.775Z,9.50
2022-09-26T15:48:27.898Z,5.65
2022-09-26T15:51:25.602Z,6.47
2022-09-26T15:54:09.360Z,6.75
2022-09-26T15:56:46.228Z,7.53
2022-09-26T15:59:31.644Z,6.55
2022-09-26T16:01:59.886Z,3.20
2022-09-26T16:04:29.399Z,2.58
2022-09-26T16:07:03.407Z,3.60
2022-09-26T16:09:32.284Z,3.67
2022-09-26T16:12:09.335Z,2.72
2022-09-26T16:15:05.099Z,2.42
2022-09-26T16:17:38.617Z,3.22
2022-09-26T16:20:29.930Z,4.63
2022-09-26T16:23:03.309Z,3.97
2022-09-26T16:25:52.798Z,2.70
2022-09-26T16:28:23.060Z,5.03
2022-09-26T16:30:58.681Z,5.03
2022-09-26T16:33:27.611Z,4.55
2022-09-26T16:35:54.654Z,3.17
2022-09-26T16:38:34.093Z,4.28
2022-09-26T16:41:48.871Z,5.95
2022-09-26T16:44:41.097Z,2.28
2022-09-26T16:47:30.501Z,4.07
2022-09-26T16:49:57.479Z,4.18
2022-09-26T16:52:32.841Z,5.55
2022-09-26T16:55:01.644Z,3.17
2022-09-26T16:57:35.348Z,2.97
2022-09-26T17:02:52.767Z,2.85
2022-09-26T17:05:22.829Z,5.60
2022-09-26T17:07:51.229Z,3.83
2022-09-26T17:10:21.115Z,3.00
2022-09-26T17:12:51.329Z,5.20
2022-09-26T17:15:23.887Z,4.95
2022-09-26T17:17:53.629Z,5.10
2022-09-26T17:20:23.939Z,5.07
2022-09-26T17:22:51.197Z,2.45
2022-09-26T17:25:18.799Z,3.70
2022-09-26T17:27:49.277Z,4.38
2022-09-26T17:30:19.146Z,4.43
2022-09-26T17:32:51.152Z,4.63
2022-09-26T17:35:25.860Z,3.63
2022-09-26T17:37:53.245Z,4.68
2022-09-26T17:40:24.322Z,5.70
2022-09-26T17:42:55.533Z,4.97
2022-09-26T17:45:28.631Z,3.30
2022-09-26T17:48:05.281Z,4.10
2022-09-26T17:50:33.481Z,2.60
2022-09-26T17:53:02.256Z,3.80
2022-09-26T17:55:31.008Z,4.03
2022-09-26T17:57:58.533Z,3.58
2022-09-26T18:00:27.096Z,4.80
2022-09-26T18:03:01.303Z,4.03
2022-09-26T18:05:34.486Z,4.50
2022-09-26T18:08:07.947Z,4.85
2022-09-26T18:10:35.581Z,3.83
2022-09-26T18:13:13.189Z,6.70
2022-09-26T18:15:40.302Z,5.05
2022-09-26T18:18:16.978Z,5.50
2022-09-26T18:20:45.463Z,5.07
2022-09-26T18:23:49.850Z,6.80
2022-09-26T18:26:30.800Z,5.43
2022-09-26T18:28:59.126Z,3.85
2022-09-26T18:31:31.595Z,6.50
2022-09-26T18:33:59.732Z,3.78
2022-09-26T18:36:29.679Z,5.68
2022-09-26T18:38:56.490Z,4.13
2022-09-26T18:41:26.541Z,4.05
2022-09-26T18:43:55.784Z,3.28
2022-09-26T18:46:25.415Z,3.28
2022-09-26T18:48:58.353Z,4.75
2022-09-26T18:51:26.654Z,5.00
2022-09-26T18:53:53.725Z,3.28
2022-09-26T18:56:38.951Z,5.50
2022-09-26T18:59:05.702Z,5.68
2022-09-26T19:01:35.361Z,4.22
2022-09-26T19:04:05.805Z,4.57
2022-09-26T19:06:37.353Z,3.75
2022-09-26T19:09:21.548Z,4.93
2022-09-26T19:11:48.651Z,4.40
2022-09-26T19:14:17.265Z,5.25
2022-09-26T19:16:45.567Z,3.08
2022-09-26T19:19:13.066Z,4.65
2022-09-26T19:21:42.885Z,9.73
2022-09-26T19:24:27.037Z,3.90
2022-09-26T19:26:57.458Z,3.20
2022-09-26T19:29:32.700Z,5.30
2022-09-26T19:32:00.087Z,2.83
2022-09-26T19:34:32.350Z,3.00
2022-09-26T19:37:03.234Z,5.50
2022-09-26T19:39:30.346Z,4.13
2022-09-26T19:41:57.097Z,3.80
2022-09-26T19:44:24.481Z,2.05
2022-09-26T19:46:51.546Z,5.13
2022-09-26T19:49:19.871Z,3.85
2022-09-26T19:51:47.294Z,3.53
2022-09-26T19:54:17.715Z,4.97
2022-09-26T19:56:45.792Z,4.82
2022-09-26T19:59:14.436Z,5.68
2022-09-26T20:01:42.974Z,2.53
2022-09-26T20:04:19.555Z,3.60
2022-09-26T20:06:47.749Z,4.55
2022-09-26T20:09:17.836Z,5.20
2022-09-26T20:11:45.203Z,4.07
2022-09-26T20:14:23.914Z,3.78
2022-09-26T20:16:52.224Z,2.85
2022-09-26T20:19:25.989Z,4.07
2022-09-26T20:21:53.209Z,3.42
2022-09-26T20:24:20.131Z,3.38
2022-09-26T20:26:48.176Z,3.40
2022-09-26T20:29:16.519Z,4.28
2022-09-26T20:31:43.711Z,4.15
2022-09-26T20:34:11.657Z,5.82
2022-09-26T20:36:42.164Z,3.97
2022-09-26T20:39:15.638Z,6.10
2022-09-26T20:41:43.937Z,5.68
2022-09-26T20:44:18.503Z,3.40
2022-09-26T20:46:54.033Z,5.05
2022-09-26T20:49:46.153Z,5.38
2022-09-26T20:52:20.848Z,5.22
2022-09-26T20:54:47.920Z,3.78
2022-09-26T20:57:19.757Z,4.07
2022-09-26T20:59:47.310Z,5.25
2022-09-26T21:02:26.425Z,5.88
2022-09-26T21:04:54.001Z,7.03
2022-09-26T21:07:22.686Z,5.30
2022-09-26T21:09:50.515Z,5.28
2022-09-26T21:12:18.522Z,4.80
2022-09-26T21:14:46.680Z,5.53
2022-09-26T21:17:28.712Z,6.63
2022-09-26T21:19:56.797Z,6.95
2022-09-26T21:22:26.829Z,8.07
2022-09-26T21:24:54.602Z,5.18
2022-09-26T21:27:21.363Z,5.35
2022-09-26T21:29:48.110Z,7.63
2022-09-26T21:32:19.525Z,9.52
2022-09-26T21:35:00.563Z,6.25
2022-09-26T21:37:27.559Z,6.30
2022-09-26T21:39:54.547Z,6.90
2022-09-26T21:42:23.073Z,10.30
2022-09-26T21:45:00.321Z,7.53
2022-09-26T21:47:28.097Z,6.80
2022-09-26T21:49:54.896Z,9.63
2022-09-26T21:52:46.511Z,5.30
2022-09-26T21:55:20.377Z,6.17
2022-09-26T21:57:49.232Z,10.20
2022-09-26T22:00:16.291Z,6.50
2022-09-26T22:02:43.034Z,8.43
2022-09-26T22:05:11.783Z,9.32
2022-09-26T22:07:39.021Z,9.27
2022-09-26T22:10:06.839Z,6.88
2022-09-26T22:12:34.351Z,8.10
2022-09-26T22:15:01.452Z,9.77
2022-09-26T22:17:28.159Z,7.25
2022-09-26T22:19:54.962Z,11.18
2022-09-26T22:22:21.708Z,9.05
2022-09-26T22:24:48.486Z,10.10
2022-09-26T22:27:15.288Z,10.57
2022-09-26T22:29:42.052Z,8.38
2022-09-26T22:32:09.066Z,9.23
2022-09-26T22:34:35.751Z,7.75
2022-09-26T22:37:02.486Z,9.73
2022-09-26T22:39:29.161Z,7.82
2022-09-26T22:41:55.830Z,9.05
2022-09-26T22:44:22.507Z,10.32
2022-09-26T22:46:49.224Z,8.80
2022-09-26T22:49:16.656Z,9.07
2022-09-26T22:51:43.299Z,8.38
2022-09-26T22:54:10.062Z,11.57
2022-09-26T22:56:36.775Z,9.55
2022-09-26T22:59:04.040Z,10.10
2022-09-26T23:01:30.834Z,5.88
2022-09-26T23:03:58.468Z,9.30
2022-09-26T23:06:25.474Z,10.48
2022-09-26T23:08:52.423Z,8.65
2022-09-26T23:11:20.144Z,8.52
2022-09-26T23:13:47.098Z,10.30
2022-09-26T23:16:17.319Z,10.85
2022-09-26T23:18:44.921Z,9.88
2022-09-26T23:21:20.496Z,6.68
2022-09-26T23:23:49.966Z,12.45
2022-09-26T23:26:23.415Z,8.95
2022-09-26T23:28:51.551Z,11.05
2022-09-26T23:31:18.657Z,8.45
2022-09-26T23:33:45.520Z,6.93
2022-09-26T23:36:12.492Z,8.00
2022-09-26T23:38:40.480Z,11.32
2022-09-26T23:41:09.850Z,8.68
2022-09-26T23:43:36.818Z,9.52
2022-09-26T23:46:04.320Z,7.22
2022-09-26T23:48:31.175Z,7.28
2022-09-26T23:50:58.289Z,10.75
2022-09-26T23:53:25.317Z,7.78
2022-09-26T23:55:52.279Z,9.32
2022-09-26T23:58:19.352Z,10.93
